weather.gov     
National Weather Service

Other Surface Observations
NWS Homepage
This page is being discontinued on March 12, 2014.
The same data is available at this site. Please update your bookmarks.
Thank you, and we apologize for the inconvenience.
Please send an email to SR-SRH.Webmaster@noaa.gov with any concerns.


Current Version
Previous Version:    01  02  03  04  05  06  07  08  09  10  11  12  13  14  15  16  17  18  19  20  21  22  23  24  25  26  27  28  29  30  
   31  32  33  34  35  36  37  38  39  40  41  42  43  44  45  46  47  48  49  50  51  52  53  54  55  56  57  58  59  60  
[Printable]
595
SXUS55 KMSO 201103
OSOMSO
MONTANA AWOS SUMMARY
NATIONAL WEATHER SERVICE MISSOULA MT
403 AM MST SUN APR 20 2014

Montana AWOS Reports

LAUREL      |K6S8 201055Z AUTO 20006KT 40SM 09/M04 A2986 RMK AO1 T00941038
ROUNDUP     |KRPX 201055Z AUTO 20004KT 40SM 04/M04 A2979 RMK AO1 T00441038
MALTA       |KM75 201055Z AUTO 19010G20KT 130V250 40SM 03/M05 A2978 RMK AO1 T00331049
SCOBEY      |K9S2 201055Z AUTO 00000KT 02/M03 A2981 RMK AO1 T00221027
PLAINS      |KS34 201055Z AUTO 22005KT 40SM 08/M02 A3011 RMK AO1 T00781021
TWIN BRIDGES|K7S1 201055Z AUTO 26008KT 40SM 09/M04 A3004 RMK AO1 T00941043
EKALAKA     |K97M 201055Z AUTO 11008KT 40SM 07/M01 A2988 RMK AO1 T00721005





U.S. Dept. of Commerce
NOAA National Weather Service
1325 East West Highway
Silver Spring, MD 20910
E-mail: w-nws.webmaster@noaa.gov
Page last modified: May 16, 2007
NATIONAL WEATHER SERVICE: for Safety, for Work, for Fun - FOR LIFE